sensor_id;sensor_type;location;lat;lon;timestamp;pressure;altitude;pressure_sealevel;temperature;humidity
29163;BME280;20331;53.144;8.208;2023-05-03T00:02:45;103037.34;;;8.64;68.58
29163;BME280;20331;53.144;8.208;2023-05-03T00:13:07;103036.50;;;8.68;68.50
29163;BME280;20331;53.144;8.208;2023-05-03T00:23:28;103027.84;;;8.65;67.70
29163;BME280;20331;53.144;8.208;2023-05-03T00:33:49;103040.66;;;8.57;67.51
29163;BME280;20331;53.144;8.208;2023-05-03T00:44:11;103045.69;;;8.48;67.77
29163;BME280;20331;53.144;8.208;2023-05-03T00:54:32;103043.84;;;8.38;67.43
29163;BME280;20331;53.144;8.208;2023-05-03T01:04:55;103048.09;;;8.36;67.96
29163;BME280;20331;53.144;8.208;2023-05-03T01:15:24;103038.72;;;8.43;68.72
29163;BME280;20331;53.144;8.208;2023-05-03T01:25:50;103049.03;;;8.41;68.80
29163;BME280;20331;53.144;8.208;2023-05-03T01:36:19;103057.53;;;8.36;67.98
29163;BME280;20331;53.144;8.208;2023-05-03T01:46:43;103054.16;;;8.38;69.00
29163;BME280;20331;53.144;8.208;2023-05-03T01:57:05;103056.72;;;8.38;70.31
29163;BME280;20331;53.144;8.208;2023-05-03T02:07:26;103060.22;;;8.42;69.31
29163;BME280;20331;53.144;8.208;2023-05-03T02:17:48;103061.16;;;8.48;69.64
29163;BME280;20331;53.144;8.208;2023-05-03T02:28:10;103074.97;;;8.52;69.44
29163;BME280;20331;53.144;8.208;2023-05-03T02:38:32;103071.63;;;8.57;69.43
29163;BME280;20331;53.144;8.208;2023-05-03T02:48:53;103067.31;;;8.56;69.34
29163;BME280;20331;53.144;8.208;2023-05-03T02:59:15;103061.34;;;8.60;68.95
29163;BME280;20331;53.144;8.208;2023-05-03T03:09:36;103059.59;;;8.59;68.92
29163;BME280;20331;53.144;8.208;2023-05-03T03:19:58;103059.59;;;8.59;68.90
29163;BME280;20331;53.144;8.208;2023-05-03T03:30:19;103060.38;;;8.54;68.96
29163;BME280;20331;53.144;8.208;2023-05-03T03:40:41;103050.91;;;8.51;70.84
29163;BME280;20331;53.144;8.208;2023-05-03T03:51:02;103044.78;;;8.45;69.85
29163;BME280;20331;53.144;8.208;2023-05-03T04:01:24;103046.41;;;8.37;70.18
29163;BME280;20331;53.144;8.208;2023-05-03T04:11:45;103033.38;;;8.29;70.56
29163;BME280;20331;53.144;8.208;2023-05-03T04:22:06;103043.69;;;8.29;70.95
29163;BME280;20331;53.144;8.208;2023-05-03T04:32:28;103053.13;;;8.27;70.37
29163;BME280;20331;53.144;8.208;2023-05-03T04:42:49;103049.81;;;8.36;71.26
29163;BME280;20331;53.144;8.208;2023-05-03T04:53:10;103061.94;;;8.43;69.95
29163;BME280;20331;53.144;8.208;2023-05-03T05:03:32;103068.91;;;8.48;68.95
29163;BME280;20331;53.144;8.208;2023-05-03T05:13:53;103083.69;;;8.60;69.09
29163;BME280;20331;53.144;8.208;2023-05-03T05:24:15;103100.13;;;8.65;68.54
29163;BME280;20331;53.144;8.208;2023-05-03T05:34:36;103102.81;;;8.72;68.63
29163;BME280;20331;53.144;8.208;2023-05-03T05:45:06;103109.09;;;8.91;67.77
29163;BME280;20331;53.144;8.208;2023-05-03T05:55:31;103122.22;;;9.04;67.34
29163;BME280;20331;53.144;8.208;2023-05-03T06:05:52;103116.38;;;9.21;67.67
29163;BME280;20331;53.144;8.208;2023-05-03T06:16:14;103132.09;;;9.37;65.64
29163;BME280;20331;53.144;8.208;2023-05-03T06:26:35;103118.47;;;9.52;64.81
29163;BME280;20331;53.144;8.208;2023-05-03T06:36:56;103140.19;;;9.69;64.96
29163;BME280;20331;53.144;8.208;2023-05-03T06:47:18;103135.13;;;9.78;64.87
29163;BME280;20331;53.144;8.208;2023-05-03T06:57:41;103132.66;;;9.88;64.15
29163;BME280;20331;53.144;8.208;2023-05-03T07:08:03;103131.88;;;10.00;62.07
29163;BME280;20331;53.144;8.208;2023-05-03T07:18:25;103130.34;;;10.14;62.58
29163;BME280;20331;53.144;8.208;2023-05-03T07:28:47;103132.16;;;10.24;61.79
29163;BME280;20331;53.144;8.208;2023-05-03T07:39:08;103140.91;;;10.38;64.13
29163;BME280;20331;53.144;8.208;2023-05-03T07:49:30;103140.94;;;10.44;63.61
29163;BME280;20331;53.144;8.208;2023-05-03T07:59:55;103141.00;;;10.49;62.84
29163;BME280;20331;53.144;8.208;2023-05-03T08:10:17;103143.59;;;10.50;63.47
29163;BME280;20331;53.144;8.208;2023-05-03T08:20:39;103130.63;;;10.50;62.78
29163;BME280;20331;53.144;8.208;2023-05-03T08:31:00;103137.59;;;10.57;63.22
29163;BME280;20331;53.144;8.208;2023-05-03T08:51:46;103142.78;;;10.57;63.59
29163;BME280;20331;53.144;8.208;2023-05-03T09:02:08;103143.63;;;10.56;63.42
29163;BME280;20331;53.144;8.208;2023-05-03T09:12:35;103141.13;;;10.65;62.65
29163;BME280;20331;53.144;8.208;2023-05-03T09:22:57;103141.22;;;10.80;62.52
29163;BME280;20331;53.144;8.208;2023-05-03T09:33:27;103134.44;;;11.00;61.42
29163;BME280;20331;53.144;8.208;2023-05-03T09:43:50;103131.09;;;11.26;62.15
29163;BME280;20331;53.144;8.208;2023-05-03T09:54:11;103129.41;;;11.37;60.09
29163;BME280;20331;53.144;8.208;2023-05-03T10:04:46;103126.00;;;11.53;60.42
29163;BME280;20331;53.144;8.208;2023-05-03T10:15:11;103120.03;;;11.69;60.02
29163;BME280;20331;53.144;8.208;2023-05-03T10:25:34;103110.53;;;11.71;59.06
29163;BME280;20331;53.144;8.208;2023-05-03T10:35:57;103101.88;;;11.69;60.35
29163;BME280;20331;53.144;8.208;2023-05-03T10:46:29;103101.84;;;12.80;59.51
29163;BME280;20331;53.144;8.208;2023-05-03T10:56:52;103093.16;;;12.90;58.07
29163;BME280;20331;53.144;8.208;2023-05-03T11:07:19;103107.03;;;12.80;58.88
29163;BME280;20331;53.144;8.208;2023-05-03T11:17:44;103101.03;;;12.44;58.07
29163;BME280;20331;53.144;8.208;2023-05-03T11:28:06;103087.88;;;13.18;59.80
29163;BME280;20331;53.144;8.208;2023-05-03T11:38:31;103084.97;;;13.73;56.49
29163;BME280;20331;53.144;8.208;2023-05-03T11:48:53;103068.06;;;14.27;56.59
29163;BME280;20331;53.144;8.208;2023-05-03T11:59:16;103053.28;;;14.31;56.67
29163;BME280;20331;53.144;8.208;2023-05-03T12:09:39;103060.72;;;13.67;57.12
29163;BME280;20331;53.144;8.208;2023-05-03T12:30:59;103038.78;;;13.98;56.49
29163;BME280;20331;53.144;8.208;2023-05-03T12:41:21;103026.50;;;14.15;56.88
29163;BME280;20331;53.144;8.208;2023-05-03T12:52:05;103022.13;;;14.19;58.11
29163;BME280;20331;53.144;8.208;2023-05-03T13:02:46;103023.28;;;13.83;52.45
29163;BME280;20331;53.144;8.208;2023-05-03T13:13:10;103000.34;;;14.27;58.25
29163;BME280;20331;53.144;8.208;2023-05-03T13:23:32;102993.34;;;14.35;53.84
29163;BME280;20331;53.144;8.208;2023-05-03T13:33:54;102977.63;;;14.43;58.26
29163;BME280;20331;53.144;8.208;2023-05-03T13:44:17;102973.44;;;14.25;58.67
29163;BME280;20331;53.144;8.208;2023-05-03T13:54:39;102961.38;;;14.17;59.62
29163;BME280;20331;53.144;8.208;2023-05-03T14:05:02;102952.66;;;14.21;57.51
29163;BME280;20331;53.144;8.208;2023-05-03T14:15:25;102950.03;;;14.22;59.54
29163;BME280;20331;53.144;8.208;2023-05-03T14:25:47;102927.50;;;14.18;59.35
29163;BME280;20331;53.144;8.208;2023-05-03T14:36:08;102925.50;;;14.41;57.78
29163;BME280;20331;53.144;8.208;2023-05-03T14:46:29;102913.53;;;14.30;53.09
29163;BME280;20331;53.144;8.208;2023-05-03T14:56:51;102907.34;;;14.37;58.72
29163;BME280;20331;53.144;8.208;2023-05-03T15:07:12;102907.47;;;14.28;59.10
29163;BME280;20331;53.144;8.208;2023-05-03T15:17:35;102908.41;;;14.19;58.26
29163;BME280;20331;53.144;8.208;2023-05-03T15:27:57;102908.28;;;14.31;58.89
29163;BME280;20331;53.144;8.208;2023-05-03T15:38:22;102890.81;;;14.38;58.71
29163;BME280;20331;53.144;8.208;2023-05-03T15:48:44;102902.06;;;14.43;56.92
29163;BME280;20331;53.144;8.208;2023-05-03T15:59:05;102896.19;;;14.24;57.70
29163;BME280;20331;53.144;8.208;2023-05-03T16:09:27;102881.22;;;14.41;57.89
29163;BME280;20331;53.144;8.208;2023-05-03T16:19:50;102883.63;;;14.56;58.24
29163;BME280;20331;53.144;8.208;2023-05-03T16:30:12;102888.59;;;14.74;53.50
29163;BME280;20331;53.144;8.208;2023-05-03T16:40:34;102865.16;;;14.73;58.34
29163;BME280;20331;53.144;8.208;2023-05-03T16:50:59;102874.06;;;14.58;58.45
29163;BME280;20331;53.144;8.208;2023-05-03T17:01:21;102868.25;;;14.38;60.14
29163;BME280;20331;53.144;8.208;2023-05-03T17:11:42;102861.47;;;14.28;58.40
29163;BME280;20331;53.144;8.208;2023-05-03T17:22:04;102854.69;;;14.10;60.51
29163;BME280;20331;53.144;8.208;2023-05-03T17:32:26;102840.84;;;14.07;60.32
29163;BME280;20331;53.144;8.208;2023-05-03T17:42:49;102848.03;;;13.87;59.46
29163;BME280;20331;53.144;8.208;2023-05-03T17:53:10;102851.91;;;13.47;60.91
29163;BME280;20331;53.144;8.208;2023-05-03T18:03:32;102854.84;;;13.09;62.06
29163;BME280;20331;53.144;8.208;2023-05-03T18:13:54;102856.75;;;12.80;62.77
29163;BME280;20331;53.144;8.208;2023-05-03T18:24:16;102856.09;;;12.46;61.61
29163;BME280;20331;53.144;8.208;2023-05-03T18:34:37;102854.41;;;12.33;62.41
29163;BME280;20331;53.144;8.208;2023-05-03T18:44:59;102855.34;;;12.12;63.21
29163;BME280;20331;53.144;8.208;2023-05-03T18:55:20;102858.03;;;11.87;63.20
29163;BME280;20331;53.144;8.208;2023-05-03T19:05:41;102856.34;;;11.71;63.64
29163;BME280;20331;53.144;8.208;2023-05-03T19:16:03;102852.88;;;11.54;64.00
29163;BME280;20331;53.144;8.208;2023-05-03T19:26:25;102865.84;;;11.36;64.38
29163;BME280;20331;53.144;8.208;2023-05-03T19:36:46;102865.00;;;11.25;65.00
29163;BME280;20331;53.144;8.208;2023-05-03T19:47:07;102869.34;;;11.06;64.33
29163;BME280;20331;53.144;8.208;2023-05-03T19:57:29;102883.97;;;10.90;65.37
29163;BME280;20331;53.144;8.208;2023-05-03T20:07:50;102869.28;;;10.79;65.29
29163;BME280;20331;53.144;8.208;2023-05-03T20:18:13;102874.47;;;10.73;65.72
29163;BME280;20331;53.144;8.208;2023-05-03T20:28:34;102880.47;;;10.58;65.77
29163;BME280;20331;53.144;8.208;2023-05-03T20:38:56;102869.19;;;10.46;66.17
29163;BME280;20331;53.144;8.208;2023-05-03T20:49:17;102889.03;;;10.45;66.07
29163;BME280;20331;53.144;8.208;2023-05-03T20:59:39;102873.47;;;10.41;66.37
29163;BME280;20331;53.144;8.208;2023-05-03T21:10:00;102872.56;;;10.28;66.47
29163;BME280;20331;53.144;8.208;2023-05-03T21:20:22;102869.94;;;10.16;66.15
29163;BME280;20331;53.144;8.208;2023-05-03T21:30:43;102869.00;;;10.05;66.93
29163;BME280;20331;53.144;8.208;2023-05-03T21:41:08;102854.31;;;9.98;67.46
29163;BME280;20331;53.144;8.208;2023-05-03T21:51:29;102850.75;;;9.84;67.38
29163;BME280;20331;53.144;8.208;2023-05-03T22:01:51;102842.94;;;9.70;67.46
29163;BME280;20331;53.144;8.208;2023-05-03T22:12:13;102841.13;;;9.57;68.06
29163;BME280;20331;53.144;8.208;2023-05-03T22:22:44;102831.56;;;9.46;68.67
29163;BME280;20331;53.144;8.208;2023-05-03T22:33:05;102827.22;;;9.37;68.40
29163;BME280;20331;53.144;8.208;2023-05-03T22:43:27;102821.09;;;9.25;68.82
29163;BME280;20331;53.144;8.208;2023-05-03T22:53:48;102820.16;;;9.18;69.34
29163;BME280;20331;53.144;8.208;2023-05-03T23:04:10;102806.38;;;9.16;68.91
29163;BME280;20331;53.144;8.208;2023-05-03T23:14:31;102808.88;;;9.05;68.97
29163;BME280;20331;53.144;8.208;2023-05-03T23:24:53;102799.38;;;9.01;69.66
29163;BME280;20331;53.144;8.208;2023-05-03T23:35:14;102796.72;;;8.92;70.39
29163;BME280;20331;53.144;8.208;2023-05-03T23:45:35;102792.34;;;8.84;69.91
29163;BME280;20331;53.144;8.208;2023-05-03T23:55:57;102781.06;;;8.74;69.92
